createdAt,value
2019-05-17T00:02:09.516Z,60.00
2019-05-17T00:04:40.492Z,59.94
2019-05-17T00:07:11.526Z,59.48
2019-05-17T00:09:42.559Z,59.70
2019-05-17T00:12:13.584Z,59.96
2019-05-17T00:14:44.635Z,59.74
2019-05-17T00:17:17.379Z,59.52
2019-05-17T00:19:48.764Z,59.36
2019-05-17T00:22:20.699Z,59.51
2019-05-17T00:24:51.673Z,59.88
2019-05-17T00:27:22.705Z,59.87
2019-05-17T00:29:54.242Z,59.98
2019-05-17T00:32:27.281Z,60.03
2019-05-17T00:34:57.988Z,59.88
2019-05-17T00:37:29.008Z,60.15
2019-05-17T00:40:00.488Z,60.00
2019-05-17T00:42:31.560Z,60.05
2019-05-17T00:45:02.566Z,60.04
2019-05-17T00:47:33.645Z,60.30
2019-05-17T00:50:07.436Z,60.51
2019-05-17T00:52:38.643Z,60.63
2019-05-17T00:55:09.782Z,60.66
2019-05-17T00:57:40.870Z,60.88
2019-05-17T01:00:12.168Z,60.79
2019-05-17T01:02:43.175Z,60.52
2019-05-17T01:05:16.849Z,60.65
2019-05-17T01:07:47.299Z,60.78
2019-05-17T01:10:18.414Z,60.45
2019-05-17T01:12:49.516Z,60.04
2019-05-17T01:15:20.657Z,60.58
2019-05-17T01:17:51.736Z,60.65
2019-05-17T01:20:22.779Z,60.40
2019-05-17T01:22:53.792Z,60.38
2019-05-17T01:25:27.137Z,60.22
2019-05-17T01:27:57.551Z,60.27
2019-05-17T01:30:28.568Z,60.47
2019-05-17T01:32:59.573Z,60.52
2019-05-17T01:35:30.584Z,60.71
2019-05-17T01:38:01.590Z,60.79
2019-05-17T01:40:32.657Z,60.88
2019-05-17T01:43:03.692Z,60.83
2019-05-17T01:45:36.514Z,60.98
2019-05-17T01:48:07.641Z,61.07
2019-05-17T01:50:38.666Z,61.20
2019-05-17T01:53:09.806Z,60.91
2019-05-17T01:55:40.815Z,61.22
2019-05-17T01:58:11.838Z,61.13
2019-05-17T02:00:42.859Z,60.91
2019-05-17T02:03:14.000Z,61.28
2019-05-17T02:05:47.205Z,61.33
2019-05-17T02:08:17.718Z,61.45
2019-05-17T02:10:48.766Z,61.53
2019-05-17T02:13:19.790Z,61.57
2019-05-17T02:15:50.794Z,61.63
2019-05-17T02:18:21.860Z,61.57
2019-05-17T02:20:52.846Z,61.57
2019-05-17T02:23:23.910Z,61.62
2019-05-17T02:25:56.976Z,61.62
2019-05-17T02:28:27.626Z,61.47
2019-05-17T02:30:58.730Z,61.30
2019-05-17T02:33:29.813Z,61.13
2019-05-17T02:36:02.700Z,61.22
2019-05-17T02:38:33.703Z,61.46
2019-05-17T02:41:04.739Z,61.19
2019-05-17T02:43:35.766Z,61.08
2019-05-17T02:46:07.043Z,61.31
2019-05-17T02:48:38.056Z,61.27
2019-05-17T02:51:12.807Z,61.30
2019-05-17T02:53:42.961Z,61.21
2019-05-17T02:56:14.277Z,61.11
2019-05-17T02:58:45.314Z,61.18
2019-05-17T03:01:16.340Z,61.49
2019-05-17T03:03:47.333Z,61.53
2019-05-17T03:06:18.336Z,61.43
2019-05-17T03:08:52.271Z,61.56
2019-05-17T03:11:23.287Z,61.40
2019-05-17T03:13:54.348Z,61.58
2019-05-17T03:16:25.354Z,61.60
2019-05-17T03:18:56.409Z,61.80
2019-05-17T03:21:27.409Z,61.77
2019-05-17T03:23:58.424Z,61.76
2019-05-17T03:26:32.563Z,61.74
2019-05-17T03:29:03.424Z,61.71
2019-05-17T03:31:42.335Z,61.81
2019-05-17T03:34:07.779Z,61.79
2019-05-17T03:36:38.840Z,61.92
2019-05-17T03:39:12.792Z,61.87
2019-05-17T03:41:43.018Z,62.02
2019-05-17T03:44:14.404Z,62.02
2019-05-17T03:46:45.453Z,62.03
2019-05-17T03:49:16.609Z,62.06
2019-05-17T03:51:47.670Z,62.10
2019-05-17T03:54:18.759Z,62.17
2019-05-17T03:56:53.000Z,62.15
2019-05-17T03:59:24.198Z,62.04
2019-05-17T04:01:55.310Z,62.10
2019-05-17T04:04:27.163Z,62.09
2019-05-17T04:06:58.219Z,62.13
2019-05-17T04:09:29.234Z,61.93
2019-05-17T04:12:02.938Z,61.94
2019-05-17T04:14:33.708Z,62.20
2019-05-17T04:17:06.129Z,61.99
2019-05-17T04:19:37.191Z,62.03
2019-05-17T04:22:08.225Z,62.20
2019-05-17T04:24:39.268Z,62.17
2019-05-17T04:27:13.404Z,61.95
2019-05-17T04:29:43.099Z,61.99
2019-05-17T04:32:14.149Z,62.11
2019-05-17T04:34:45.225Z,62.07
2019-05-17T04:37:16.235Z,62.20
2019-05-17T04:39:48.356Z,62.28
2019-05-17T04:42:22.426Z,62.30
2019-05-17T04:44:52.863Z,62.36
2019-05-17T04:47:24.091Z,62.31
2019-05-17T04:49:55.181Z,62.38
2019-05-17T04:52:26.983Z,62.36
2019-05-17T04:54:58.045Z,62.29
2019-05-17T04:57:32.336Z,62.03
2019-05-17T05:00:04.270Z,61.89
2019-05-17T05:02:34.494Z,62.15
2019-05-17T05:05:06.037Z,62.19
2019-05-17T05:07:37.067Z,62.23
2019-05-17T05:10:08.389Z,62.34
2019-05-17T05:12:39.412Z,62.43
2019-05-17T05:15:12.191Z,62.54
2019-05-17T05:17:43.402Z,62.76
2019-05-17T05:20:14.564Z,62.99
2019-05-17T05:22:45.616Z,63.02
2019-05-17T05:25:16.724Z,63.15
2019-05-17T05:27:47.719Z,63.16
2019-05-17T05:30:18.761Z,63.08
2019-05-17T05:32:49.775Z,62.85
2019-05-17T05:35:22.462Z,62.85
2019-05-17T05:37:53.702Z,62.72
2019-05-17T05:40:24.694Z,62.75
2019-05-17T05:42:55.656Z,62.68
2019-05-17T05:45:27.416Z,62.60
2019-05-17T05:48:01.627Z,62.93
2019-05-17T05:50:32.453Z,62.98
2019-05-17T05:53:03.883Z,62.89
2019-05-17T05:55:34.881Z,62.97
2019-05-17T05:58:05.907Z,62.83
2019-05-17T06:00:36.887Z,62.70
2019-05-17T06:03:07.965Z,62.77
2019-05-17T06:05:38.977Z,62.88
2019-05-17T06:08:12.108Z,63.04
2019-05-17T06:10:43.062Z,62.87
2019-05-17T06:13:14.262Z,62.83
2019-05-17T06:15:45.891Z,62.70
2019-05-17T06:18:16.899Z,62.99
2019-05-17T06:20:47.911Z,62.86
2019-05-17T06:23:19.499Z,62.78
2019-05-17T06:25:52.243Z,62.53
2019-05-17T06:28:23.392Z,62.54
2019-05-17T06:30:54.440Z,62.48
2019-05-17T06:33:30.685Z,62.56
2019-05-17T06:35:58.141Z,62.59
2019-05-17T06:38:29.124Z,62.53
2019-05-17T06:41:01.601Z,62.52
2019-05-17T06:43:32.848Z,62.89
2019-05-17T06:46:03.818Z,63.17
2019-05-17T06:48:34.806Z,63.21
2019-05-17T06:51:05.808Z,63.40
2019-05-17T06:53:36.779Z,63.29
2019-05-17T06:56:07.768Z,63.40
2019-05-17T06:58:38.744Z,63.36
2019-05-17T07:01:09.800Z,63.21
2019-05-17T07:03:40.815Z,63.36
2019-05-17T07:06:13.479Z,63.07
2019-05-17T07:08:44.523Z,62.96
2019-05-17T07:11:15.511Z,63.08
2019-05-17T07:13:49.500Z,62.87
2019-05-17T07:16:20.175Z,62.50
2019-05-17T07:18:51.169Z,62.75
2019-05-17T07:21:22.186Z,63.14
2019-05-17T07:23:53.194Z,62.70
2019-05-17T07:26:24.199Z,62.70
2019-05-17T07:28:55.212Z,62.67
2019-05-17T07:31:27.098Z,62.71
2019-05-17T07:33:59.841Z,62.66
2019-05-17T07:36:31.135Z,62.70
2019-05-17T07:39:02.155Z,62.28
2019-05-17T07:41:33.612Z,62.08
2019-05-17T07:44:04.627Z,61.32
2019-05-17T07:46:35.759Z,61.14
2019-05-17T07:49:07.029Z,60.90
2019-05-17T07:51:39.579Z,60.43
2019-05-17T07:54:10.771Z,60.17
2019-05-17T07:56:41.811Z,60.19
2019-05-17T07:59:12.801Z,60.01
2019-05-17T08:01:43.841Z,59.37
2019-05-17T08:04:14.853Z,59.44
2019-05-17T08:06:45.878Z,59.15
2019-05-17T08:09:16.921Z,59.29
2019-05-17T08:11:50.059Z,58.70
2019-05-17T08:14:30.011Z,58.30
2019-05-17T08:16:53.309Z,58.14
2019-05-17T08:19:24.826Z,58.05
2019-05-17T08:21:55.840Z,57.92
2019-05-17T08:24:27.119Z,57.87
2019-05-17T08:26:59.944Z,57.95
2019-05-17T08:29:31.045Z,57.76
2019-05-17T08:32:02.054Z,57.60
2019-05-17T08:34:33.119Z,57.72
2019-05-17T08:37:04.131Z,57.68
2019-05-17T08:39:35.164Z,57.49
2019-05-17T08:42:06.213Z,57.40
2019-05-17T08:44:39.267Z,57.01
2019-05-17T08:47:10.284Z,56.89
2019-05-17T08:49:41.516Z,56.95
2019-05-17T08:52:13.294Z,57.29
2019-05-17T08:54:44.358Z,57.31
2019-05-17T08:57:15.375Z,57.00
2019-05-17T08:59:49.602Z,56.91
2019-05-17T09:02:20.224Z,56.76
2019-05-17T09:04:51.278Z,56.94
2019-05-17T09:07:22.244Z,56.90
2019-05-17T09:09:53.386Z,56.64
2019-05-17T09:12:24.408Z,56.63
2019-05-17T09:14:55.450Z,56.47
2019-05-17T09:17:29.876Z,56.60
2019-05-17T09:20:00.907Z,56.79
2019-05-17T09:22:32.012Z,56.78
2019-05-17T09:25:03.421Z,56.74
2019-05-17T09:27:34.512Z,56.39
2019-05-17T09:30:09.472Z,56.15
2019-05-17T09:32:40.824Z,56.02
2019-05-17T09:35:12.058Z,55.93
2019-05-17T09:37:43.047Z,55.79
2019-05-17T09:40:14.033Z,55.78
2019-05-17T09:42:45.079Z,55.41
2019-05-17T09:45:16.156Z,55.46
2019-05-17T09:47:47.346Z,55.55
2019-05-17T09:50:20.006Z,55.42
2019-05-17T09:52:51.250Z,55.23
2019-05-17T09:55:22.298Z,55.39
2019-05-17T09:57:53.316Z,55.48
2019-05-17T10:00:25.891Z,55.35
2019-05-17T10:02:56.903Z,55.12
2019-05-17T10:05:31.015Z,55.09
2019-05-17T10:08:00.599Z,55.05
2019-05-17T10:10:32.162Z,54.96
2019-05-17T10:13:03.164Z,54.60
2019-05-17T10:15:34.189Z,54.39
2019-05-17T10:18:05.268Z,54.53
2019-05-17T10:20:36.285Z,54.56
2019-05-17T10:23:07.349Z,54.61
2019-05-17T10:25:40.054Z,54.32
2019-05-17T10:28:11.379Z,54.52
2019-05-17T10:30:42.411Z,54.24
2019-05-17T10:33:13.454Z,54.21
2019-05-17T10:35:44.508Z,54.36
2019-05-17T10:38:15.520Z,54.49
2019-05-17T10:40:47.258Z,54.54
2019-05-17T10:43:20.269Z,54.41
2019-05-17T10:45:50.928Z,54.46
2019-05-17T10:48:21.956Z,54.62
2019-05-17T10:50:53.017Z,54.55
2019-05-17T10:53:23.987Z,54.21
2019-05-17T10:55:55.069Z,53.54
2019-05-17T10:58:26.240Z,53.38
2019-05-17T11:00:57.234Z,53.42
2019-05-17T11:03:29.681Z,53.53
2019-05-17T11:06:01.025Z,53.72
2019-05-17T11:08:32.017Z,53.70
2019-05-17T11:11:03.759Z,53.65
2019-05-17T11:13:34.746Z,53.01
2019-05-17T11:16:05.711Z,52.83
2019-05-17T11:18:36.714Z,52.85
2019-05-17T11:21:07.672Z,52.44
2019-05-17T11:23:38.699Z,52.18
2019-05-17T11:26:09.678Z,52.01
2019-05-17T11:28:40.729Z,51.89
2019-05-17T11:31:11.745Z,51.92
2019-05-17T11:33:42.777Z,51.71
2019-05-17T11:36:13.773Z,52.02
2019-05-17T11:38:44.779Z,51.82
2019-05-17T11:41:21.142Z,51.39
2019-05-17T11:43:48.553Z,51.33
2019-05-17T11:46:19.613Z,51.25
2019-05-17T11:48:50.638Z,51.31
2019-05-17T11:51:21.716Z,51.14
2019-05-17T11:53:52.711Z,50.78
2019-05-17T11:56:23.714Z,50.74
2019-05-17T11:58:54.771Z,50.52
2019-05-17T12:01:26.153Z,50.12
2019-05-17T12:03:57.162Z,50.03
2019-05-17T12:06:28.200Z,50.17
2019-05-17T12:08:59.224Z,50.00
2019-05-17T12:11:30.398Z,49.96
2019-05-17T12:14:01.370Z,50.00
2019-05-17T12:16:32.478Z,50.21
2019-05-17T12:19:03.497Z,50.37
2019-05-17T12:21:34.559Z,50.33
2019-05-17T12:24:05.575Z,50.08
2019-05-17T12:26:36.671Z,50.12
2019-05-17T12:29:07.682Z,50.08
2019-05-17T12:31:38.656Z,49.15
2019-05-17T12:34:09.680Z,48.50
2019-05-17T12:36:40.743Z,48.37
2019-05-17T12:39:11.763Z,48.02
2019-05-17T12:41:42.832Z,48.09
2019-05-17T12:44:13.937Z,47.77
2019-05-17T12:46:44.988Z,47.14
2019-05-17T12:49:16.005Z,46.52
2019-05-17T12:51:47.588Z,46.40
2019-05-17T12:54:18.621Z,46.65
2019-05-17T12:56:49.617Z,46.24
2019-05-17T12:59:20.703Z,46.37
2019-05-17T13:01:51.702Z,46.37
2019-05-17T13:04:22.746Z,46.61
2019-05-17T13:06:53.760Z,46.85
2019-05-17T13:09:24.731Z,46.57
2019-05-17T13:11:55.695Z,46.70
2019-05-17T13:14:27.105Z,46.80
2019-05-17T13:16:58.100Z,46.53
2019-05-17T13:19:29.047Z,46.45
2019-05-17T13:22:00.078Z,46.62
2019-05-17T13:24:33.969Z,46.90
2019-05-17T13:27:04.939Z,46.93
2019-05-17T13:29:35.976Z,46.83
2019-05-17T13:32:07.160Z,46.73
2019-05-17T13:34:38.410Z,46.68
2019-05-17T13:37:09.397Z,46.85
2019-05-17T13:39:40.512Z,46.83
2019-05-17T13:42:11.546Z,46.75
2019-05-17T13:44:42.707Z,46.50
2019-05-17T13:47:13.759Z,46.24
2019-05-17T13:49:44.763Z,46.02
2019-05-17T13:52:15.804Z,45.68
2019-05-17T13:54:47.127Z,45.34
2019-05-17T13:57:18.175Z,45.36
2019-05-17T13:59:50.029Z,45.43
2019-05-17T14:02:21.090Z,45.68
2019-05-17T14:04:52.149Z,45.82
2019-05-17T14:07:23.167Z,46.04
2019-05-17T14:09:54.162Z,45.99
2019-05-17T14:12:25.243Z,46.07
2019-05-17T14:14:56.211Z,46.51
2019-05-17T14:17:28.620Z,46.29
2019-05-17T14:19:59.615Z,46.21
2019-05-17T14:22:30.628Z,46.21
2019-05-17T14:25:01.678Z,46.18
2019-05-17T14:27:33.066Z,46.24
2019-05-17T14:30:05.931Z,46.10
2019-05-17T14:32:36.988Z,46.04
2019-05-17T14:35:08.268Z,45.89
2019-05-17T14:37:39.452Z,46.05
2019-05-17T14:40:10.849Z,46.12
2019-05-17T14:42:41.912Z,46.42
2019-05-17T14:45:13.126Z,46.57
2019-05-17T14:47:44.197Z,46.55
2019-05-17T14:50:15.427Z,46.55
2019-05-17T14:52:47.844Z,46.50
2019-05-17T14:55:18.987Z,46.60
2019-05-17T14:57:50.065Z,46.38
2019-05-17T15:00:21.219Z,46.16
2019-05-17T15:02:52.246Z,46.06
2019-05-17T15:05:23.247Z,45.68
2019-05-17T15:07:54.280Z,45.96
2019-05-17T15:10:25.328Z,45.74
2019-05-17T15:12:56.316Z,45.73
2019-05-17T15:15:28.493Z,45.68
2019-05-17T15:17:59.478Z,45.84
2019-05-17T15:20:30.504Z,46.06
2019-05-17T15:23:01.571Z,46.13
2019-05-17T15:25:32.758Z,45.91
2019-05-17T15:28:03.796Z,46.08
2019-05-17T15:30:34.872Z,46.12
2019-05-17T15:33:05.964Z,46.32
2019-05-17T15:35:36.985Z,46.50
2019-05-17T15:38:10.932Z,46.46
2019-05-17T15:40:40.972Z,46.22
2019-05-17T15:43:12.011Z,46.27
2019-05-17T15:45:43.034Z,46.30
2019-05-17T15:48:14.037Z,46.29
2019-05-17T15:50:45.047Z,46.42
2019-05-17T15:53:16.141Z,46.58
2019-05-17T15:55:48.022Z,46.63
2019-05-17T15:58:19.093Z,46.65
2019-05-17T16:00:50.264Z,46.80
2019-05-17T16:03:21.250Z,46.89
2019-05-17T16:05:52.270Z,46.97
2019-05-17T16:08:23.699Z,46.97
2019-05-17T16:10:54.787Z,46.92
2019-05-17T16:13:25.836Z,46.82
2019-05-17T16:15:56.881Z,46.86
2019-05-17T16:18:27.934Z,47.08
2019-05-17T16:20:58.953Z,47.00
2019-05-17T16:23:29.947Z,46.76
2019-05-17T16:26:01.717Z,46.69
2019-05-17T16:28:34.367Z,46.73
2019-05-17T16:31:05.375Z,46.83
2019-05-17T16:36:08.936Z,48.06
2019-05-17T16:38:39.952Z,47.83
2019-05-17T16:41:11.055Z,47.87
2019-05-17T16:43:42.103Z,47.71
2019-05-17T16:46:13.181Z,47.68
2019-05-17T16:48:44.231Z,47.79
2019-05-17T16:51:15.260Z,47.74
2019-05-17T16:53:46.260Z,47.70
2019-05-17T16:56:17.228Z,47.77
2019-05-17T16:58:48.211Z,47.92
2019-05-17T17:01:19.182Z,47.98
2019-05-17T17:03:50.137Z,48.05
2019-05-17T17:06:21.445Z,47.90
2019-05-17T17:08:52.461Z,47.89
2019-05-17T17:11:23.505Z,48.02
2019-05-17T17:13:54.503Z,47.95
2019-05-17T17:16:25.570Z,47.99
2019-05-17T17:18:56.590Z,48.07
2019-05-17T17:21:27.858Z,48.11
2019-05-17T17:23:59.220Z,48.04
2019-05-17T17:26:30.269Z,48.02
2019-05-17T17:29:01.290Z,48.03
2019-05-17T17:31:32.270Z,48.17
2019-05-17T17:34:03.299Z,48.30
2019-05-17T17:36:34.285Z,48.19
2019-05-17T17:39:06.611Z,48.26
2019-05-17T17:41:37.635Z,48.32
2019-05-17T17:44:08.601Z,48.41
2019-05-17T17:46:39.610Z,48.55
2019-05-17T17:49:10.677Z,48.53
2019-05-17T17:51:41.819Z,48.40
2019-05-17T17:54:12.874Z,48.61
2019-05-17T17:56:44.011Z,48.60
2019-05-17T17:59:15.030Z,48.69
2019-05-17T18:01:46.103Z,48.58
2019-05-17T18:04:17.121Z,48.68
2019-05-17T18:06:48.133Z,48.69
2019-05-17T18:09:19.150Z,48.83
2019-05-17T18:11:50.184Z,48.78
2019-05-17T18:14:21.203Z,48.95
2019-05-17T18:16:52.223Z,49.01
2019-05-17T18:19:23.280Z,49.02
2019-05-17T18:21:54.321Z,49.07
2019-05-17T18:24:25.295Z,48.95
2019-05-17T18:26:56.289Z,49.08
2019-05-17T18:29:28.055Z,48.94
2019-05-17T18:31:59.176Z,49.04
2019-05-17T18:34:30.150Z,49.01
2019-05-17T18:37:01.166Z,49.04
2019-05-17T18:39:32.170Z,49.13
2019-05-17T18:42:03.214Z,49.23
2019-05-17T18:44:34.307Z,49.31
2019-05-17T18:47:05.416Z,49.19
2019-05-17T18:49:36.447Z,49.44
2019-05-17T18:52:07.544Z,49.33
2019-05-17T18:54:38.499Z,49.60
2019-05-17T18:57:09.552Z,49.44
2019-05-17T18:59:40.488Z,49.60
2019-05-17T19:02:11.509Z,49.53
2019-05-17T19:04:42.500Z,49.57
2019-05-17T19:07:13.511Z,49.62
2019-05-17T19:09:44.545Z,49.72
2019-05-17T19:12:15.767Z,49.69
2019-05-17T19:14:47.203Z,49.78
2019-05-17T19:17:19.269Z,49.72
2019-05-17T19:19:50.267Z,49.85
2019-05-17T19:22:21.241Z,49.78
2019-05-17T19:24:52.234Z,49.84
2019-05-17T19:27:23.304Z,49.92
2019-05-17T19:29:54.305Z,49.94
2019-05-17T19:32:25.275Z,49.94
2019-05-17T19:34:56.236Z,50.02
2019-05-17T19:37:28.001Z,50.07
2019-05-17T19:39:58.978Z,50.16
2019-05-17T19:42:29.969Z,50.20
2019-05-17T19:45:00.946Z,50.27
2019-05-17T19:47:31.933Z,50.28
2019-05-17T19:50:02.895Z,50.39
2019-05-17T19:52:33.889Z,50.50
2019-05-17T19:55:08.491Z,50.44
2019-05-17T19:57:39.552Z,50.58
2019-05-17T20:00:11.710Z,50.55
2019-05-17T20:02:42.713Z,50.56
2019-05-17T20:05:13.853Z,50.57
2019-05-17T20:07:45.743Z,50.59
2019-05-17T20:10:17.426Z,50.64
2019-05-17T20:12:48.424Z,50.75
2019-05-17T20:15:32.345Z,50.74
2019-05-17T20:17:52.165Z,50.78
2019-05-17T20:20:23.134Z,50.82
2019-05-17T20:22:54.166Z,50.81
2019-05-17T20:25:25.144Z,50.81
2019-05-17T20:27:56.119Z,51.06
2019-05-17T20:30:27.471Z,50.98
2019-05-17T20:32:58.450Z,51.00
2019-05-17T20:35:29.463Z,51.08
2019-05-17T20:38:00.430Z,51.19
2019-05-17T20:40:31.419Z,51.17
2019-05-17T20:43:02.544Z,51.25
2019-05-17T20:45:33.828Z,51.33
2019-05-17T20:48:04.865Z,51.36
2019-05-17T20:50:35.874Z,51.32
2019-05-17T20:53:18.270Z,51.44
2019-05-17T20:55:40.190Z,51.34
2019-05-17T20:58:11.187Z,51.51
2019-05-17T21:00:42.570Z,51.49
2019-05-17T21:03:14.017Z,51.49
2019-05-17T21:05:45.192Z,51.43
2019-05-17T21:08:16.173Z,51.74
2019-05-17T21:10:47.453Z,51.59
2019-05-17T21:13:18.526Z,51.72
2019-05-17T21:15:49.521Z,51.65
2019-05-17T21:18:20.496Z,51.67
2019-05-17T21:20:51.506Z,51.75
2019-05-17T21:23:22.496Z,51.76
2019-05-17T21:25:53.472Z,51.73
2019-05-17T21:28:24.637Z,51.70
2019-05-17T21:30:55.646Z,51.71
2019-05-17T21:33:27.970Z,51.80
2019-05-17T21:35:59.048Z,51.76
2019-05-17T21:38:30.024Z,51.85
2019-05-17T21:41:01.378Z,51.87
2019-05-17T21:43:32.352Z,51.83
2019-05-17T21:46:04.412Z,51.94
2019-05-17T21:48:35.490Z,51.90
2019-05-17T21:51:07.462Z,51.93
2019-05-17T21:53:38.428Z,51.99
2019-05-17T21:56:09.522Z,51.96
2019-05-17T21:58:40.514Z,52.07
2019-05-17T22:01:15.660Z,52.14
2019-05-17T22:03:47.759Z,52.14
2019-05-17T22:06:18.807Z,52.11
2019-05-17T22:08:49.782Z,52.21
2019-05-17T22:11:20.834Z,52.13
2019-05-17T22:13:51.801Z,52.14
2019-05-17T22:16:22.778Z,52.09
2019-05-17T22:18:53.756Z,52.10
2019-05-17T22:21:24.730Z,52.11
2019-05-17T22:23:55.703Z,52.11
2019-05-17T22:26:27.234Z,52.14
2019-05-17T22:28:58.189Z,52.20
2019-05-17T22:31:29.170Z,52.17
2019-05-17T22:34:00.154Z,52.34
2019-05-17T22:36:31.128Z,52.28
2019-05-17T22:39:02.110Z,52.36
2019-05-17T22:41:33.087Z,52.40
2019-05-17T22:44:04.068Z,52.40
2019-05-17T22:46:36.566Z,52.38
2019-05-17T22:49:07.807Z,52.29
2019-05-17T22:51:38.779Z,52.56
2019-05-17T22:54:09.824Z,52.58
2019-05-17T22:56:40.816Z,52.57
2019-05-17T22:59:11.791Z,52.59
2019-05-17T23:01:42.783Z,52.63
2019-05-17T23:04:13.773Z,52.60
2019-05-17T23:06:44.749Z,52.53
2019-05-17T23:09:15.738Z,52.57
2019-05-17T23:11:47.779Z,52.55
2019-05-17T23:14:18.774Z,52.66
2019-05-17T23:16:51.993Z,52.63
2019-05-17T23:19:22.461Z,52.64
2019-05-17T23:21:53.429Z,52.76
2019-05-17T23:24:24.440Z,52.76
2019-05-17T23:26:55.396Z,52.87
2019-05-17T23:29:28.145Z,52.80
2019-05-17T23:31:59.115Z,52.80
2019-05-17T23:34:30.102Z,53.04
2019-05-17T23:37:01.085Z,52.95
2019-05-17T23:39:32.240Z,52.97
2019-05-17T23:42:03.212Z,52.95
2019-05-17T23:44:34.197Z,53.10
2019-05-17T23:47:07.390Z,53.29
2019-05-17T23:49:37.865Z,53.18
2019-05-17T23:52:08.852Z,53.29
2019-05-17T23:54:39.825Z,53.15
2019-05-17T23:57:10.815Z,53.23
2019-05-17T23:59:41.951Z,53.37
